createdAt,value
2023-02-07T00:01:33.202Z,143484.19
2023-02-07T00:04:00.380Z,143487.81
2023-02-07T00:06:33.801Z,143475.72
2023-02-07T00:09:03.120Z,143405.78
2023-02-07T00:11:30.588Z,143463.69
2023-02-07T00:13:58.888Z,143449.19
2023-02-07T00:16:26.441Z,143384.03
2023-02-07T00:18:55.036Z,143464.88
2023-02-07T00:21:24.218Z,143434.72
2023-02-07T00:23:53.149Z,143435.94
2023-02-07T00:26:24.685Z,143412.97
2023-02-07T00:28:53.971Z,143411.78
2023-02-07T00:31:27.218Z,143317.69
2023-02-07T00:33:56.938Z,143408.16
2023-02-07T00:36:25.551Z,143382.84
2023-02-07T00:38:56.633Z,143415.41
2023-02-07T00:41:24.039Z,143412.97
2023-02-07T00:43:51.355Z,143429.88
2023-02-07T00:46:18.439Z,143402.13
2023-02-07T00:48:45.677Z,143412.97
2023-02-07T00:51:16.207Z,143379.22
2023-02-07T00:53:45.523Z,143364.75
2023-02-07T00:56:12.725Z,143338.22
2023-02-07T00:58:40.096Z,143355.13
2023-02-07T01:01:07.204Z,143357.50
2023-02-07T01:03:34.282Z,143378.03
2023-02-07T01:06:01.381Z,143273.09
2023-02-07T01:08:28.463Z,143234.50
2023-02-07T01:10:55.533Z,143227.25
2023-02-07T01:13:22.569Z,143434.72
2023-02-07T01:15:50.450Z,143333.41
2023-02-07T01:18:17.493Z,143417.84
2023-02-07T01:20:44.761Z,143426.25
2023-02-07T01:23:13.222Z,143466.09
2023-02-07T01:25:43.975Z,143490.25
2023-02-07T01:28:11.956Z,143475.72
2023-02-07T01:30:40.911Z,143463.69
2023-02-07T01:33:08.994Z,143468.50
2023-02-07T01:35:37.751Z,143396.13
2023-02-07T01:38:05.752Z,143409.41
2023-02-07T01:40:37.779Z,143343.03
2023-02-07T01:43:06.706Z,143329.75
2023-02-07T01:45:37.856Z,143323.75
2023-02-07T01:48:14.959Z,143298.41
2023-02-07T01:50:46.782Z,143205.59
2023-02-07T01:53:17.443Z,143267.06
2023-02-07T01:55:47.463Z,143206.78
2023-02-07T01:58:15.176Z,143229.69
2023-02-07T02:00:42.760Z,143191.09
2023-02-07T02:03:09.841Z,143150.09
2023-02-07T02:05:39.691Z,143162.16
2023-02-07T02:08:07.090Z,143135.66
2023-02-07T02:11:00.384Z,143116.38
2023-02-07T02:13:55.618Z,143115.19
2023-02-07T02:16:42.738Z,143123.63
2023-02-07T02:19:31.326Z,143126.00
2023-02-07T02:22:13.753Z,143104.31
2023-02-07T02:24:54.339Z,143098.31
2023-02-07T02:27:47.764Z,143101.94
2023-02-07T02:30:36.722Z,143093.47
2023-02-07T02:33:25.286Z,143088.66
2023-02-07T02:36:07.660Z,143063.34
2023-02-07T02:38:37.602Z,143064.53
2023-02-07T02:41:58.060Z,143053.72
2023-02-07T02:44:38.509Z,143045.25
2023-02-07T02:47:05.934Z,143034.44
2023-02-07T02:49:34.419Z,142985.03
2023-02-07T02:52:01.694Z,143033.25
2023-02-07T02:54:38.223Z,143028.38
2023-02-07T02:57:16.065Z,143030.81
2023-02-07T03:00:08.985Z,142938.03
2023-02-07T03:03:00.629Z,142774.28
2023-02-07T03:05:36.904Z,142926.03
2023-02-07T03:08:18.066Z,143032.00
2023-02-07T03:11:07.149Z,143032.00
2023-02-07T03:13:58.807Z,143007.94
2023-02-07T03:16:40.932Z,143064.53
2023-02-07T03:19:15.651Z,142718.94
2023-02-07T03:21:46.941Z,143004.31
2023-02-07T03:24:18.045Z,143072.97
2023-02-07T03:26:47.006Z,143074.22
2023-02-07T03:29:17.769Z,143053.72
2023-02-07T03:31:48.120Z,143082.59
2023-02-07T03:34:21.021Z,143100.69
2023-02-07T03:37:04.564Z,143083.84
2023-02-07T03:39:32.823Z,143034.44
2023-02-07T03:42:06.217Z,142860.97
2023-02-07T03:44:35.864Z,142911.59
2023-02-07T03:47:04.287Z,143023.56
2023-02-07T03:49:31.308Z,142979.03
2023-02-07T03:51:58.316Z,142995.88
2023-02-07T03:54:25.375Z,142998.31
2023-02-07T03:56:52.365Z,143004.31
2023-02-07T03:59:19.365Z,142950.09
2023-02-07T04:01:46.443Z,142966.97
2023-02-07T04:04:13.510Z,142749.03
2023-02-07T04:06:40.515Z,142969.34
2023-02-07T04:09:08.387Z,142960.97
2023-02-07T04:11:36.148Z,142926.03
2023-02-07T04:14:03.202Z,142979.03
2023-02-07T04:16:30.395Z,142981.41
2023-02-07T04:18:57.464Z,142974.19
2023-02-07T04:21:25.145Z,142964.53
2023-02-07T04:23:52.141Z,142946.47
2023-02-07T04:26:19.469Z,142889.91
2023-02-07T04:28:46.463Z,142804.41
2023-02-07T04:31:13.584Z,142848.97
2023-02-07T04:33:40.803Z,142836.91
2023-02-07T04:36:08.256Z,142827.28
2023-02-07T04:38:35.287Z,142917.59
2023-02-07T04:41:05.398Z,142848.97
2023-02-07T04:43:34.442Z,142903.13
2023-02-07T04:46:02.809Z,142880.25
2023-02-07T04:48:30.632Z,142730.97
2023-02-07T04:50:57.993Z,142926.03
2023-02-07T04:53:25.340Z,142954.91
2023-02-07T04:55:54.181Z,142935.66
2023-02-07T04:58:22.514Z,142919.97
2023-02-07T05:00:49.576Z,142406.19
2023-02-07T05:03:16.738Z,142901.91
2023-02-07T05:05:45.505Z,142665.97
2023-02-07T05:08:13.500Z,142824.84
2023-02-07T05:10:40.955Z,142670.78
2023-02-07T05:13:07.990Z,142815.22
2023-02-07T05:15:35.179Z,142791.16
2023-02-07T05:18:02.378Z,142785.16
2023-02-07T05:20:29.413Z,142811.59
2023-02-07T05:22:56.507Z,142873.03
2023-02-07T05:25:23.623Z,142875.44
2023-02-07T05:27:50.993Z,142881.47
2023-02-07T05:30:18.570Z,142865.78
2023-02-07T05:33:03.837Z,142774.28
2023-02-07T05:35:34.660Z,142904.34
2023-02-07T05:38:05.976Z,142735.78
2023-02-07T05:40:37.044Z,142848.97
2023-02-07T05:43:04.676Z,142810.41
2023-02-07T05:45:32.225Z,142690.06
2023-02-07T05:47:59.400Z,142752.63
2023-02-07T05:50:26.531Z,142769.47
2023-02-07T05:53:06.500Z,142785.16
2023-02-07T05:55:33.837Z,142792.34
2023-02-07T05:58:00.945Z,142779.09
2023-02-07T06:00:28.119Z,142762.28
2023-02-07T06:02:55.279Z,142762.28
2023-02-07T06:05:23.652Z,142752.63
2023-02-07T06:07:51.848Z,142697.25
2023-02-07T06:10:19.178Z,142739.38
2023-02-07T06:12:46.498Z,142767.09
2023-02-07T06:15:13.548Z,142762.28
2023-02-07T06:17:40.553Z,142743.00
2023-02-07T06:20:08.377Z,142738.19
2023-02-07T06:22:35.493Z,142702.06
2023-02-07T06:25:02.813Z,142635.91
2023-02-07T06:27:30.125Z,142702.06
2023-02-07T06:29:57.119Z,142679.22
2023-02-07T06:32:24.181Z,142690.06
2023-02-07T06:34:51.202Z,142685.22
2023-02-07T06:37:18.280Z,142678.03
2023-02-07T06:39:45.377Z,142617.88
2023-02-07T06:42:12.532Z,142675.59
2023-02-07T06:44:39.523Z,142685.22
2023-02-07T06:47:07.168Z,142686.44
2023-02-07T06:49:34.134Z,142699.69
2023-02-07T06:52:01.486Z,142687.63
2023-02-07T06:54:28.715Z,142685.22
2023-02-07T06:56:55.703Z,142696.06
2023-02-07T06:59:22.717Z,142711.69
2023-02-07T07:01:49.893Z,142685.22
2023-02-07T07:04:18.314Z,142644.31
2023-02-07T07:06:46.773Z,142676.81
2023-02-07T07:09:13.804Z,142670.78
2023-02-07T07:11:43.016Z,142674.41
2023-02-07T07:14:11.490Z,142656.34
2023-02-07T07:16:40.928Z,142688.84
2023-02-07T07:19:08.217Z,142516.81
2023-02-07T07:21:35.692Z,142703.25
2023-02-07T07:24:03.216Z,142716.50
2023-02-07T07:26:43.051Z,142735.78
2023-02-07T07:29:15.239Z,142750.22
2023-02-07T07:31:42.379Z,142779.09
2023-02-07T07:34:09.383Z,142803.22
2023-02-07T07:36:36.397Z,142814.03
2023-02-07T07:39:03.870Z,142841.72
2023-02-07T07:41:30.912Z,142846.53
2023-02-07T07:43:57.884Z,142845.34
2023-02-07T07:46:25.211Z,142845.34
2023-02-07T07:48:52.911Z,142868.22
2023-02-07T07:51:19.987Z,142903.13
2023-02-07T07:53:47.115Z,142836.91
2023-02-07T07:56:14.233Z,142988.66
2023-02-07T07:58:41.307Z,143022.38
2023-02-07T08:01:08.390Z,143005.50
2023-02-07T08:03:35.470Z,143017.56
2023-02-07T08:06:02.535Z,143070.59
2023-02-07T08:08:29.615Z,143077.78
2023-02-07T08:11:01.933Z,143020.00
2023-02-07T08:13:32.270Z,143135.66
2023-02-07T08:16:00.030Z,143183.88
2023-02-07T08:18:27.143Z,143222.44
2023-02-07T08:20:54.153Z,143251.41
2023-02-07T08:23:22.366Z,143248.97
2023-02-07T08:25:50.115Z,143281.50
2023-02-07T08:28:18.147Z,143302.03
2023-02-07T08:30:47.419Z,143343.03
2023-02-07T08:33:16.274Z,143352.69
2023-02-07T08:35:44.023Z,143379.22
2023-02-07T08:38:11.803Z,143287.56
2023-02-07T08:40:39.641Z,143400.94
2023-02-07T08:43:12.141Z,143427.50
2023-02-07T08:45:46.780Z,143444.34
2023-02-07T08:48:14.372Z,143454.03
2023-02-07T08:50:41.711Z,143496.25
2023-02-07T08:53:09.025Z,143521.56
2023-02-07T08:55:36.489Z,143374.41
2023-02-07T08:58:03.486Z,143557.78
2023-02-07T09:00:30.515Z,143575.91
2023-02-07T09:02:57.612Z,143574.69
2023-02-07T09:05:24.967Z,143562.66
2023-02-07T09:07:51.937Z,143579.53
2023-02-07T09:10:19.086Z,143603.69
2023-02-07T09:12:46.072Z,143581.97
2023-02-07T09:15:13.138Z,143537.28
2023-02-07T09:17:40.525Z,143577.13
2023-02-07T09:20:08.015Z,143608.53
2023-02-07T09:22:54.995Z,143620.56
2023-02-07T09:25:22.127Z,143630.22
2023-02-07T09:27:50.401Z,143647.13
2023-02-07T09:30:17.761Z,143597.63
2023-02-07T09:32:44.781Z,143682.16
2023-02-07T09:35:11.828Z,143695.44
2023-02-07T09:37:48.887Z,143734.06
2023-02-07T09:40:19.372Z,143743.78
2023-02-07T09:42:57.483Z,143720.78
2023-02-07T09:45:29.274Z,143746.16
2023-02-07T09:48:04.532Z,143775.13
2023-02-07T09:50:37.588Z,143767.91
2023-02-07T09:53:16.335Z,143783.59
2023-02-07T09:55:55.158Z,143753.44
2023-02-07T09:58:43.759Z,143796.88
2023-02-07T10:01:27.345Z,143799.31
2023-02-07T10:04:26.576Z,143850.03
2023-02-07T10:06:57.628Z,143833.13
2023-02-07T10:09:32.524Z,143876.63
2023-02-07T10:12:36.816Z,143864.53
2023-02-07T10:15:16.959Z,143912.88
2023-02-07T10:18:01.964Z,143881.47
2023-02-07T10:20:36.624Z,143807.78
2023-02-07T10:23:14.609Z,143927.38
2023-02-07T10:26:06.399Z,143922.56
2023-02-07T10:29:05.040Z,143963.63
2023-02-07T10:31:37.678Z,143973.31
2023-02-07T10:34:14.392Z,144004.72
2023-02-07T10:36:53.542Z,144024.06
2023-02-07T10:39:45.541Z,143982.97
2023-02-07T10:42:15.770Z,144026.50
2023-02-07T10:44:43.623Z,144044.63
2023-02-07T10:47:16.628Z,143980.56
2023-02-07T10:49:47.695Z,144107.50
2023-02-07T10:52:27.680Z,144123.22
2023-02-07T10:54:58.525Z,144114.75
2023-02-07T10:57:27.737Z,144132.88
2023-02-07T11:00:04.984Z,144154.66
2023-02-07T11:02:32.128Z,144142.59
2023-02-07T11:05:08.611Z,144096.59
2023-02-07T11:07:47.164Z,144048.28
2023-02-07T11:10:25.118Z,144070.03
2023-02-07T11:12:57.078Z,144112.34
2023-02-07T11:15:32.568Z,144118.38
2023-02-07T11:17:59.596Z,144120.81
2023-02-07T11:20:33.416Z,144158.28
2023-02-07T11:23:03.809Z,144163.13
2023-02-07T11:25:34.807Z,144169.16
2023-02-07T11:28:02.195Z,144154.66
2023-02-07T11:30:33.769Z,144091.78
2023-02-07T11:33:04.498Z,144089.38
2023-02-07T11:35:31.728Z,144183.72
2023-02-07T11:38:13.273Z,144151.03
2023-02-07T11:40:43.416Z,144198.22
2023-02-07T11:43:19.260Z,144206.69
2023-02-07T11:45:50.124Z,144136.50
2023-02-07T11:48:25.634Z,144217.56
2023-02-07T11:50:55.481Z,144197.03
2023-02-07T11:53:28.110Z,144108.72
2023-02-07T11:55:56.451Z,144125.66
2023-02-07T11:58:35.071Z,144228.44
2023-02-07T12:01:05.292Z,144229.66
2023-02-07T12:03:41.116Z,144234.50
2023-02-07T12:06:15.570Z,144270.81
2023-02-07T12:08:44.085Z,144275.63
2023-02-07T12:11:28.397Z,144242.97
2023-02-07T12:14:13.641Z,144188.53
2023-02-07T12:16:52.503Z,144268.34
2023-02-07T12:19:24.547Z,144234.50
2023-02-07T12:22:17.943Z,144285.31
2023-02-07T12:24:51.756Z,144287.75
2023-02-07T12:27:19.966Z,144316.78
2023-02-07T12:30:01.922Z,144297.44
2023-02-07T12:32:33.398Z,144320.41
2023-02-07T12:35:15.867Z,144345.78
2023-02-07T12:37:50.962Z,144319.16
2023-02-07T12:40:36.932Z,144359.09
2023-02-07T12:43:11.026Z,144348.25
2023-02-07T12:46:00.280Z,144345.78
2023-02-07T12:48:33.429Z,144337.31
2023-02-07T12:51:29.637Z,144355.47
2023-02-07T12:54:35.718Z,144353.06
2023-02-07T12:57:02.632Z,144362.75
2023-02-07T12:59:45.965Z,144301.00
2023-02-07T13:02:40.401Z,144376.06
2023-02-07T13:05:19.995Z,144386.94
2023-02-07T13:08:19.972Z,144386.94
2023-02-07T13:11:01.968Z,144403.91
2023-02-07T13:14:35.788Z,144409.94
2023-02-07T13:17:21.037Z,144429.34
2023-02-07T13:20:00.159Z,144416.00
2023-02-07T13:22:55.023Z,144422.06
2023-02-07T13:25:27.240Z,144417.22
2023-02-07T13:27:57.654Z,144420.84
2023-02-07T13:30:30.238Z,144430.53
2023-02-07T13:33:05.260Z,144440.22
2023-02-07T13:35:38.479Z,144440.22
2023-02-07T13:38:46.937Z,144422.06
2023-02-07T13:41:33.762Z,144432.97
2023-02-07T13:44:20.062Z,144413.56
2023-02-07T13:47:01.350Z,144422.06
2023-02-07T13:49:34.562Z,144428.09
2023-02-07T13:52:10.903Z,144425.69
2023-02-07T13:55:40.492Z,144439.00
2023-02-07T13:58:51.430Z,144437.81
2023-02-07T14:01:21.813Z,144440.22
2023-02-07T14:04:19.617Z,144442.66
2023-02-07T14:07:11.611Z,144449.88
2023-02-07T14:09:44.882Z,144423.25
2023-02-07T14:12:26.465Z,144356.72
2023-02-07T14:15:02.677Z,144395.41
2023-02-07T14:17:31.131Z,144395.41
2023-02-07T14:20:00.113Z,144408.72
2023-02-07T14:22:48.809Z,144396.66
2023-02-07T14:25:24.576Z,144391.78
2023-02-07T14:27:51.541Z,144399.06
2023-02-07T14:30:23.032Z,144403.91
2023-02-07T14:33:12.260Z,144406.34
2023-02-07T14:36:02.556Z,144403.91
2023-02-07T14:38:37.367Z,144396.66
2023-02-07T14:41:14.048Z,144409.94
2023-02-07T14:43:59.718Z,144399.06
2023-02-07T14:46:39.476Z,144411.19
2023-02-07T14:49:32.056Z,144397.84
2023-02-07T14:52:05.033Z,144371.22
2023-02-07T14:54:56.350Z,144366.38
2023-02-07T14:57:46.954Z,144367.59
2023-02-07T15:00:13.917Z,144373.63
2023-02-07T15:03:04.972Z,144357.91
2023-02-07T15:05:37.341Z,144360.34
2023-02-07T15:08:06.153Z,144355.47
2023-02-07T15:10:37.918Z,144350.63
2023-02-07T15:13:17.241Z,144273.19
2023-02-07T15:15:52.210Z,144308.28
2023-02-07T15:18:22.113Z,144314.34
2023-02-07T15:20:57.510Z,144299.81
2023-02-07T15:23:30.373Z,144292.59
2023-02-07T15:26:06.779Z,144161.94
2023-02-07T15:28:34.133Z,144278.03
2023-02-07T15:31:11.235Z,144264.72
2023-02-07T15:33:47.651Z,144272.00
2023-02-07T15:36:45.848Z,144232.06
2023-02-07T15:39:23.121Z,144249.00
2023-02-07T15:41:55.607Z,144228.44
2023-02-07T15:44:27.219Z,144211.53
2023-02-07T15:46:54.265Z,144198.22
2023-02-07T15:49:32.368Z,144090.56
2023-02-07T15:52:19.577Z,144157.09
2023-02-07T15:54:51.172Z,144146.19
2023-02-07T15:57:29.157Z,144014.41
2023-02-07T16:00:02.679Z,143946.69
2023-02-07T16:02:47.333Z,144067.59
2023-02-07T16:05:37.893Z,143962.44
2023-02-07T16:08:47.124Z,144032.53
2023-02-07T16:11:26.113Z,143990.25
2023-02-07T16:14:14.354Z,143970.91
2023-02-07T16:16:51.690Z,143893.56
2023-02-07T16:19:26.054Z,143952.78
2023-02-07T16:22:15.255Z,143917.72
2023-02-07T16:24:44.875Z,143810.16
2023-02-07T16:27:17.926Z,143839.19
2023-02-07T16:29:45.918Z,143685.78
2023-02-07T16:32:16.860Z,143852.47
2023-02-07T16:34:58.586Z,143799.31
2023-02-07T16:37:28.637Z,143813.81
2023-02-07T16:39:55.769Z,143746.16
2023-02-07T16:42:25.903Z,143672.50
2023-02-07T16:44:53.685Z,143649.56
2023-02-07T16:47:23.601Z,143760.63
2023-02-07T16:49:50.748Z,143746.16
2023-02-07T16:52:18.069Z,143658.03
2023-02-07T16:54:46.913Z,143683.34
2023-02-07T16:57:14.960Z,143685.78
2023-02-07T16:59:42.332Z,143672.50
2023-02-07T17:02:16.269Z,143659.22
2023-02-07T17:04:43.339Z,143614.53
2023-02-07T17:07:11.554Z,143555.41
2023-02-07T17:09:38.617Z,143572.31
2023-02-07T17:12:07.223Z,143543.31
2023-02-07T17:14:36.287Z,143458.88
2023-02-07T17:17:03.490Z,143349.06
2023-02-07T17:19:30.718Z,143439.53
2023-02-07T17:21:57.858Z,143293.59
2023-02-07T17:24:24.860Z,143340.59
2023-02-07T17:26:54.319Z,143451.63
2023-02-07T17:29:22.073Z,143433.50
2023-02-07T17:31:49.529Z,143417.84
2023-02-07T17:34:16.916Z,143422.66
2023-02-07T17:36:48.212Z,143345.47
2023-02-07T17:39:17.568Z,143384.03
2023-02-07T17:41:44.821Z,143404.56
2023-02-07T17:44:11.928Z,143417.84
2023-02-07T17:46:38.994Z,143357.50
2023-02-07T17:49:13.651Z,143371.97
2023-02-07T17:51:40.788Z,143227.25
2023-02-07T17:54:08.274Z,143297.22
2023-02-07T17:56:35.724Z,143314.09
2023-02-07T17:59:05.737Z,143362.31
2023-02-07T18:01:33.466Z,143340.59
2023-02-07T18:04:02.464Z,143286.34
2023-02-07T18:06:30.563Z,143345.47
2023-02-07T18:08:58.850Z,143312.88
2023-02-07T18:11:30.424Z,143315.31
2023-02-07T18:13:57.812Z,143276.69
2023-02-07T18:16:26.655Z,143044.06
2023-02-07T18:18:56.575Z,143248.97
2023-02-07T18:21:23.920Z,143133.25
2023-02-07T18:23:53.175Z,143227.25
2023-02-07T18:26:21.204Z,143227.25
2023-02-07T18:28:48.814Z,143224.88
2023-02-07T18:31:19.550Z,143221.25
2023-02-07T18:33:47.553Z,143186.28
2023-02-07T18:36:14.830Z,143198.34
2023-02-07T18:38:42.291Z,143179.06
2023-02-07T18:41:15.665Z,143179.06
2023-02-07T18:43:43.213Z,143169.41
2023-02-07T18:46:12.832Z,143092.28
2023-02-07T18:48:40.684Z,143158.53
2023-02-07T18:51:10.563Z,143146.53
2023-02-07T18:53:38.075Z,143054.91
2023-02-07T18:56:07.380Z,143118.75
2023-02-07T18:58:34.593Z,143136.84
2023-02-07T19:01:09.744Z,143138.09
2023-02-07T19:03:38.532Z,143147.72
2023-02-07T19:06:07.346Z,143110.38
2023-02-07T19:08:34.928Z,143134.47
2023-02-07T19:11:05.081Z,143116.38
2023-02-07T19:13:33.611Z,143060.97
2023-02-07T19:16:03.736Z,143100.69
2023-02-07T19:18:31.369Z,143022.38
2023-02-07T19:21:13.395Z,143059.72
2023-02-07T19:23:41.064Z,143118.75
2023-02-07T19:26:08.888Z,143113.94
2023-02-07T19:28:37.287Z,143086.22
2023-02-07T19:31:08.032Z,143072.97
2023-02-07T19:33:36.071Z,143047.69
2023-02-07T19:36:08.725Z,142981.41
2023-02-07T19:38:36.431Z,143026.00
2023-02-07T19:41:04.295Z,142906.75
2023-02-07T19:43:31.711Z,142894.72
2023-02-07T19:45:59.578Z,142995.88
2023-02-07T19:48:26.845Z,142993.47
2023-02-07T19:51:01.735Z,142988.66
2023-02-07T19:53:29.708Z,143024.81
2023-02-07T19:56:05.686Z,142995.88
2023-02-07T19:58:33.661Z,142926.03
2023-02-07T20:01:01.973Z,142897.09
2023-02-07T20:03:29.148Z,142976.59
2023-02-07T20:06:00.210Z,142959.72
2023-02-07T20:08:27.772Z,142942.91
2023-02-07T20:10:54.823Z,142935.66
2023-02-07T20:13:21.957Z,142873.03
2023-02-07T20:15:48.973Z,142921.22
2023-02-07T20:18:16.022Z,142933.22
2023-02-07T20:20:46.604Z,142838.09
2023-02-07T20:23:15.098Z,142839.31
2023-02-07T20:25:42.130Z,142928.41
2023-02-07T20:28:09.150Z,142921.22
2023-02-07T20:30:42.362Z,142737.00
2023-02-07T20:33:09.494Z,142761.03
2023-02-07T20:35:37.947Z,142887.47
2023-02-07T20:38:04.951Z,142893.50
2023-02-07T20:40:32.755Z,142906.75
2023-02-07T20:42:59.745Z,142904.34
2023-02-07T20:45:28.279Z,142899.53
2023-02-07T20:47:55.394Z,142873.03
2023-02-07T20:50:22.714Z,142873.03
2023-02-07T20:52:49.933Z,142829.66
2023-02-07T20:55:17.168Z,142791.16
2023-02-07T20:57:44.380Z,142854.97
2023-02-07T21:00:12.004Z,142771.91
2023-02-07T21:02:40.082Z,142848.97
2023-02-07T21:05:07.359Z,142874.22
2023-02-07T21:07:34.465Z,142873.03
2023-02-07T21:10:01.745Z,142806.78
2023-02-07T21:12:29.067Z,142851.34
2023-02-07T21:14:57.459Z,142817.66
2023-02-07T21:17:24.604Z,142839.31
2023-02-07T21:19:51.709Z,142769.47
2023-02-07T21:22:19.055Z,142868.22
2023-02-07T21:24:47.402Z,142844.13
2023-02-07T21:27:14.541Z,142810.41
2023-02-07T21:29:41.639Z,142803.22
2023-02-07T21:32:08.941Z,142786.34
2023-02-07T21:34:36.160Z,142836.91
2023-02-07T21:37:03.201Z,142711.69
2023-02-07T21:39:30.328Z,142596.22
2023-02-07T21:41:58.708Z,142783.91
2023-02-07T21:44:25.779Z,142774.28
2023-02-07T21:46:52.846Z,142670.78
2023-02-07T21:49:20.830Z,142777.91
2023-02-07T21:51:49.421Z,142690.06
2023-02-07T21:54:16.740Z,142761.03
2023-02-07T21:56:44.439Z,142752.63
2023-02-07T21:59:17.091Z,142749.03
2023-02-07T22:01:45.258Z,142737.00
2023-02-07T22:04:14.199Z,142749.03
2023-02-07T22:06:43.876Z,142721.31
2023-02-07T22:09:15.696Z,142783.91
2023-02-07T22:11:43.156Z,142774.28
2023-02-07T22:14:13.458Z,142774.28
2023-02-07T22:16:40.809Z,142755.03
2023-02-07T22:19:11.211Z,142723.75
2023-02-07T22:21:38.417Z,142632.31
2023-02-07T22:24:06.347Z,142658.78
2023-02-07T22:26:34.654Z,142536.03
2023-02-07T22:29:03.012Z,142634.69
2023-02-07T22:31:32.066Z,142668.41
2023-02-07T22:34:07.862Z,142548.06
2023-02-07T22:36:37.605Z,142657.53
2023-02-07T22:39:06.763Z,142484.34
2023-02-07T22:41:35.401Z,142625.06
2023-02-07T22:44:03.385Z,142626.25
2023-02-07T22:46:30.572Z,142620.25
2023-02-07T22:48:58.034Z,142625.06
2023-02-07T22:51:32.201Z,142617.88
2023-02-07T22:54:03.684Z,142617.88
2023-02-07T22:56:31.319Z,142593.78
2023-02-07T22:58:58.310Z,142614.25
2023-02-07T23:01:34.546Z,142604.63
2023-02-07T23:04:03.389Z,142597.41
2023-02-07T23:06:32.409Z,142539.66
2023-02-07T23:09:00.240Z,142576.94
2023-02-07T23:11:27.279Z,142588.97
2023-02-07T23:13:55.375Z,142599.81
2023-02-07T23:16:28.278Z,142592.59
2023-02-07T23:18:57.140Z,142574.53
2023-02-07T23:21:25.792Z,142613.03
2023-02-07T23:23:53.722Z,142596.22
2023-02-07T23:26:22.909Z,142579.34
2023-02-07T23:28:51.373Z,142572.13
2023-02-07T23:31:20.486Z,142566.13
2023-02-07T23:33:48.296Z,142536.03
2023-02-07T23:36:17.719Z,142552.88
2023-02-07T23:38:46.817Z,142534.84
2023-02-07T23:41:14.393Z,142527.66
2023-02-07T23:43:42.167Z,142537.28
2023-02-07T23:46:17.647Z,142534.84
2023-02-07T23:48:45.516Z,142459.06
2023-02-07T23:51:13.648Z,142536.03
2023-02-07T23:53:42.029Z,142531.22
2023-02-07T23:56:10.977Z,142525.22
2023-02-07T23:58:39.141Z,142531.22
